Time;durP1;ratioP1;P1;durP2;ratioP2;P2;SDS_P1;SDS_P2;PMS_P1;PMS_P2;Temp;Humidity;BMP_temperature;BMP_pressure;BME280_temperature;BME280_humidity;BME280_pressure;Samples;Min_cycle;Max_cycle;Signal;HPM_P1;HPM_P2
2023/10/27 00:01:03;;;;;;;53.38;34.60;;;9.80;99.90;;;;;;5016741;28;20088;-72
2023/10/27 00:03:29;;;;;;;50.60;34.55;;;9.70;99.90;;;;;;5000471;28;20072;-72
2023/10/27 00:05:55;;;;;;;48.10;32.45;;;9.70;99.90;;;;;;5000735;28;20452;-72
2023/10/27 00:08:21;;;;;;;48.50;32.47;;;9.70;99.90;;;;;;5016634;28;20045;-72
2023/10/27 00:10:46;;;;;;;47.38;32.28;;;9.70;99.90;;;;;;5016441;28;20140;-72
2023/10/27 00:13:12;;;;;;;52.75;32.88;;;9.70;99.90;;;;;;5000369;28;20041;-71
2023/10/27 00:15:38;;;;;;;47.70;31.52;;;9.70;99.90;;;;;;5000193;28;20387;-72
2023/10/27 00:18:04;;;;;;;50.17;31.42;;;9.70;99.90;;;;;;5000208;28;20401;-72
2023/10/27 00:20:29;;;;;;;53.45;32.60;;;9.60;99.90;;;;;;5016749;28;20077;-72
2023/10/27 00:22:55;;;;;;;44.72;30.70;;;9.60;99.90;;;;;;4983812;28;20044;-71
2023/10/27 00:25:21;;;;;;;51.20;31.23;;;9.60;99.90;;;;;;5016303;28;20042;-72
2023/10/27 00:27:47;;;;;;;48.65;30.85;;;9.50;99.90;;;;;;4999868;28;20139;-71
2023/10/27 00:30:12;;;;;;;54.58;31.33;;;9.50;99.90;;;;;;4999879;28;20053;-72
2023/10/27 00:32:38;;;;;;;44.60;28.02;;;9.40;99.90;;;;;;4999927;28;20037;-72
2023/10/27 00:35:05;;;;;;;50.55;30.63;;;9.40;99.90;;;;;;5016287;28;20029;-71
2023/10/27 00:37:34;;;;;;;40.50;26.70;;;9.50;99.90;;;;;;5032514;28;20115;-71
2023/10/27 00:40:01;;;;;;;45.10;28.73;;;9.50;99.90;;;;;;4999757;28;20045;-72
2023/10/27 00:42:26;;;;;;;44.92;28.25;;;9.50;99.90;;;;;;5000031;28;20037;-72
2023/10/27 00:44:52;;;;;;;44.97;29.10;;;9.50;99.90;;;;;;5015890;28;20053;-72
2023/10/27 00:47:18;;;;;;;44.50;28.63;;;9.50;99.90;;;;;;5015951;28;20041;-72
2023/10/27 00:49:44;;;;;;;45.00;28.52;;;9.50;99.90;;;;;;5015907;28;20038;-72
2023/10/27 00:52:14;;;;;;;39.63;27.17;;;9.50;99.90;;;;;;5015969;28;20049;-72
2023/10/27 00:54:42;;;;;;;41.28;27.17;;;9.50;99.90;;;;;;5032332;28;20060;-71
2023/10/27 00:57:08;;;;;;;38.28;26.08;;;9.60;99.90;;;;;;5015839;28;20042;-72
2023/10/27 00:59:36;;;;;;;44.33;27.95;;;9.60;99.90;;;;;;5015847;28;20042;-72
2023/10/27 01:02:02;;;;;;;46.35;27.92;;;9.60;99.90;;;;;;5016004;28;20056;-71
2023/10/27 01:04:28;;;;;;;40.80;26.77;;;9.60;99.90;;;;;;4999473;28;20048;-72
2023/10/27 01:06:55;;;;;;;38.65;26.13;;;9.50;99.90;;;;;;4998942;28;20041;-71
2023/10/27 01:09:21;;;;;;;44.92;26.65;;;9.50;99.90;;;;;;5015203;28;20049;-71
2023/10/27 01:11:48;;;;;;;39.17;25.98;;;9.50;99.90;;;;;;5015554;28;20049;-72
2023/10/27 01:14:14;;;;;;;39.15;26.13;;;9.50;99.90;;;;;;5015984;28;20501;-71
2023/10/27 01:16:39;;;;;;;40.22;25.25;;;9.50;99.90;;;;;;4999323;28;20033;-71
2023/10/27 01:19:05;;;;;;;39.05;26.02;;;9.50;99.90;;;;;;5015795;28;20452;-72
2023/10/27 01:21:31;;;;;;;45.63;27.48;;;9.50;99.90;;;;;;5015634;28;20038;-72
2023/10/27 01:23:57;;;;;;;53.08;29.40;;;9.60;99.90;;;;;;4999342;28;20033;-72
2023/10/27 01:26:23;;;;;;;41.20;26.02;;;9.60;99.90;;;;;;4999330;28;20034;-72
2023/10/27 01:28:48;;;;;;;47.25;26.98;;;9.60;99.90;;;;;;5015407;28;20045;-72
2023/10/27 01:31:15;;;;;;;46.97;26.77;;;9.60;99.90;;;;;;5015346;28;20040;-72
2023/10/27 01:33:41;;;;;;;42.80;26.15;;;9.60;99.90;;;;;;5015349;28;20049;-72
2023/10/27 01:36:07;;;;;;;42.83;26.58;;;9.60;99.90;;;;;;5015255;28;20129;-71
2023/10/27 01:38:32;;;;;;;44.72;25.98;;;9.60;99.90;;;;;;4999373;28;20045;-72
2023/10/27 01:40:58;;;;;;;45.88;26.25;;;9.60;99.90;;;;;;5015226;28;20453;-72
2023/10/27 01:43:24;;;;;;;39.40;22.52;;;9.60;99.90;;;;;;4999051;28;20447;-72
2023/10/27 01:45:50;;;;;;;42.38;25.58;;;9.60;99.90;;;;;;5015461;28;20052;-71
2023/10/27 01:48:15;;;;;;;40.92;25.85;;;9.60;99.90;;;;;;4982765;28;20124;-72
2023/10/27 01:50:41;;;;;;;41.90;25.90;;;9.60;99.90;;;;;;5015119;28;20486;-71
2023/10/27 01:53:07;;;;;;;41.05;25.27;;;9.70;99.90;;;;;;4999139;28;20046;-71
2023/10/27 01:55:33;;;;;;;41.13;25.35;;;9.70;99.90;;;;;;5015165;28;20052;-72
2023/10/27 01:57:58;;;;;;;40.40;25.40;;;9.60;99.90;;;;;;4982652;28;20444;-72
2023/10/27 02:00:24;;;;;;;36.92;23.60;;;9.70;99.90;;;;;;5015290;28;20034;-72
2023/10/27 02:02:50;;;;;;;39.65;25.23;;;9.70;99.90;;;;;;4998724;28;20041;-71
2023/10/27 02:05:15;;;;;;;38.60;24.45;;;9.70;99.90;;;;;;4998883;28;20115;-73
2023/10/27 02:07:41;;;;;;;39.35;24.13;;;9.70;99.90;;;;;;5014958;28;20052;-72
2023/10/27 02:10:07;;;;;;;35.38;22.77;;;9.70;99.90;;;;;;5014911;28;20085;-72
2023/10/27 02:12:33;;;;;;;43.08;25.60;;;9.70;99.90;;;;;;4998939;28;20045;-71
2023/10/27 02:14:59;;;;;;;39.50;24.75;;;9.70;99.90;;;;;;4998962;28;20033;-73
2023/10/27 02:17:25;;;;;;;38.15;23.67;;;9.70;99.90;;;;;;5014898;28;20041;-72
2023/10/27 02:19:50;;;;;;;37.28;22.95;;;9.70;99.90;;;;;;5001539;28;20041;-71
2023/10/27 02:22:19;;;;;;;39.80;24.17;;;9.70;99.90;;;;;;5002687;28;20045;-72
2023/10/27 02:24:45;;;;;;;39.72;23.83;;;9.70;99.90;;;;;;5018645;28;20045;-72
2023/10/27 02:27:11;;;;;;;40.15;24.88;;;9.70;99.90;;;;;;5018719;28;20052;-73
2023/10/27 02:29:36;;;;;;;42.65;26.05;;;9.70;99.90;;;;;;5018413;28;20409;-73
2023/10/27 02:32:02;;;;;;;43.60;26.40;;;9.70;99.90;;;;;;5018421;28;20450;-72
2023/10/27 02:34:28;;;;;;;40.53;23.88;;;9.70;99.90;;;;;;5018437;28;20406;-73
2023/10/27 02:36:53;;;;;;;43.25;24.92;;;9.70;99.90;;;;;;5018294;28;20107;-72
2023/10/27 02:39:19;;;;;;;40.78;25.17;;;9.70;99.90;;;;;;5002122;28;20049;-73
2023/10/27 02:41:45;;;;;;;42.72;25.42;;;9.70;99.90;;;;;;5018747;28;20041;-72
2023/10/27 02:44:11;;;;;;;41.72;25.02;;;9.70;99.90;;;;;;5018547;28;20041;-71
2023/10/27 02:46:37;;;;;;;41.47;24.63;;;9.70;99.90;;;;;;5002259;28;20041;-72
2023/10/27 02:49:04;;;;;;;43.15;25.10;;;9.70;99.90;;;;;;5001919;28;20102;-72
2023/10/27 02:51:29;;;;;;;45.75;26.30;;;9.70;99.90;;;;;;5018403;28;20041;-72
2023/10/27 02:53:55;;;;;;;46.08;26.48;;;9.70;99.90;;;;;;5001729;28;20041;-72
2023/10/27 02:56:21;;;;;;;41.22;24.65;;;9.70;99.90;;;;;;5018091;28;20130;-72
2023/10/27 02:58:47;;;;;;;42.38;25.08;;;9.70;99.90;;;;;;5001924;28;20080;-72
2023/10/27 03:01:16;;;;;;;44.70;24.58;;;9.70;99.90;;;;;;5018348;28;20077;-72
2023/10/27 03:03:44;;;;;;;42.50;25.10;;;9.70;99.90;;;;;;5017910;28;20045;-72
2023/10/27 03:06:11;;;;;;;39.65;23.70;;;9.70;99.90;;;;;;5001500;28;20088;-72
2023/10/27 03:08:38;;;;;;;38.10;23.88;;;9.70;99.90;;;;;;5018051;28;20041;-72
2023/10/27 03:11:04;;;;;;;37.95;24.10;;;9.70;99.90;;;;;;5017571;28;20061;-72
2023/10/27 03:13:31;;;;;;;36.10;23.35;;;9.70;99.90;;;;;;5017739;28;20124;-72
2023/10/27 03:16:01;;;;;;;39.67;24.45;;;9.70;99.90;;;;;;5001728;28;20037;-72
2023/10/27 03:18:27;;;;;;;40.20;23.05;;;9.70;99.90;;;;;;5017951;28;20561;-72
2023/10/27 03:20:57;;;;;;;40.33;24.95;;;9.70;99.90;;;;;;5017569;28;20077;-72
2023/10/27 03:23:24;;;;;;;49.08;26.67;;;9.60;99.90;;;;;;5001262;28;20038;-72
2023/10/27 03:25:50;;;;;;;42.55;24.65;;;9.60;99.90;;;;;;5017844;28;20080;-72
2023/10/27 03:28:16;;;;;;;44.60;25.63;;;9.70;99.90;;;;;;5001152;28;20077;-72
2023/10/27 03:30:42;;;;;;;38.92;23.95;;;9.60;99.90;;;;;;5000351;28;20124;-72
2023/10/27 03:33:08;;;;;;;46.97;24.80;;;9.60;99.90;;;;;;5001043;28;20037;-72
2023/10/27 03:35:37;;;;;;;49.65;25.10;;;9.60;99.90;;;;;;5017293;28;20421;-72
2023/10/27 03:38:02;;;;;;;49.30;26.52;;;9.60;99.90;;;;;;5000911;28;20037;-72
2023/10/27 03:40:28;;;;;;;48.05;25.75;;;9.60;99.90;;;;;;5000911;28;20064;-72
2023/10/27 03:42:54;;;;;;;43.33;24.65;;;9.60;99.90;;;;;;5017256;28;20037;-72
2023/10/27 03:45:20;;;;;;;40.90;23.45;;;9.50;99.90;;;;;;5000991;28;20037;-72
2023/10/27 03:47:45;;;;;;;41.22;24.55;;;9.60;99.90;;;;;;5001022;28;20037;-72
2023/10/27 03:50:11;;;;;;;39.95;23.05;;;9.60;99.90;;;;;;5017020;28;20054;-72
2023/10/27 03:52:37;;;;;;;40.40;23.73;;;9.60;99.90;;;;;;5000745;28;20037;-72
2023/10/27 03:55:03;;;;;;;39.90;23.35;;;9.60;99.90;;;;;;5000725;28;20120;-72
2023/10/27 03:57:35;;;;;;;35.83;21.38;;;9.60;99.90;;;;;;5000588;28;20104;-72
2023/10/27 04:00:05;;;;;;;37.92;22.13;;;9.60;99.90;;;;;;5016941;28;20049;-72
2023/10/27 04:02:31;;;;;;;32.45;21.08;;;9.60;99.90;;;;;;5000582;28;20042;-72
2023/10/27 04:04:57;;;;;;;31.00;18.40;;;9.60;99.90;;;;;;5000736;28;20391;-71
2023/10/27 04:07:22;;;;;;;32.97;20.13;;;9.60;99.90;;;;;;5017024;28;20402;-72
2023/10/27 04:09:48;;;;;;;31.42;19.95;;;9.60;99.90;;;;;;5000357;28;20057;-71
2023/10/27 04:12:14;;;;;;;34.55;20.45;;;9.60;99.90;;;;;;5016565;28;20041;-71
2023/10/27 04:14:40;;;;;;;31.30;20.00;;;9.60;99.90;;;;;;5016528;28;20037;-71
2023/10/27 04:17:05;;;;;;;31.98;20.23;;;9.50;99.90;;;;;;5000552;28;20045;-72
2023/10/27 04:19:31;;;;;;;30.08;19.23;;;9.60;99.90;;;;;;5016606;28;20084;-72
2023/10/27 04:21:57;;;;;;;32.15;19.95;;;9.60;99.90;;;;;;5000424;28;20468;-72
2023/10/27 04:24:23;;;;;;;32.40;19.52;;;9.50;99.90;;;;;;5016449;28;20103;-71
2023/10/27 04:26:49;;;;;;;33.25;20.27;;;9.50;99.90;;;;;;5016245;28;20092;-71
2023/10/27 04:29:15;;;;;;;30.02;19.00;;;9.50;99.90;;;;;;5016530;28;20170;-72
2023/10/27 04:31:41;;;;;;;30.15;19.13;;;9.50;99.90;;;;;;5016184;28;20033;-72
2023/10/27 04:34:07;;;;;;;34.38;20.08;;;9.50;99.90;;;;;;5016196;28;20397;-72
2023/10/27 04:36:32;;;;;;;33.08;19.98;;;9.50;99.90;;;;;;5016267;28;20091;-71
2023/10/27 04:38:58;;;;;;;32.28;20.17;;;9.40;99.90;;;;;;5000145;28;20037;-72
2023/10/27 04:41:24;;;;;;;33.15;19.85;;;9.40;99.90;;;;;;5016080;28;20099;-71
2023/10/27 04:43:49;;;;;;;34.10;20.00;;;9.40;99.90;;;;;;4999792;28;20405;-71
2023/10/27 04:46:15;;;;;;;32.50;20.08;;;9.40;99.90;;;;;;5016285;28;20041;-71
2023/10/27 04:48:41;;;;;;;33.25;20.23;;;9.40;99.90;;;;;;4983436;28;20037;-72
2023/10/27 04:51:06;;;;;;;32.60;20.33;;;9.40;99.90;;;;;;4999478;28;20045;-71
2023/10/27 04:53:32;;;;;;;33.80;20.27;;;9.40;99.90;;;;;;5016042;28;20144;-72
2023/10/27 04:55:58;;;;;;;33.83;20.63;;;9.40;99.90;;;;;;4999526;28;20120;-71
2023/10/27 04:58:24;;;;;;;31.67;19.20;;;9.40;99.90;;;;;;5016014;28;20091;-72
2023/10/27 05:00:50;;;;;;;33.83;21.10;;;9.40;99.90;;;;;;4999678;28;20485;-71
2023/10/27 05:03:17;;;;;;;34.58;21.15;;;9.40;99.90;;;;;;5016279;28;20528;-71
2023/10/27 05:05:43;;;;;;;34.65;21.63;;;9.40;99.90;;;;;;5015703;28;20072;-71
2023/10/27 05:08:09;;;;;;;32.55;20.17;;;9.30;99.90;;;;;;5015595;28;20166;-71
2023/10/27 05:10:35;;;;;;;33.10;21.80;;;9.40;99.90;;;;;;5015548;28;20045;-72
2023/10/27 05:13:03;;;;;;;34.58;21.75;;;9.40;99.90;;;;;;5015710;28;20045;-72
2023/10/27 05:15:29;;;;;;;34.05;21.08;;;9.40;99.90;;;;;;4999311;28;20048;-71
2023/10/27 05:17:55;;;;;;;33.80;21.30;;;9.30;99.90;;;;;;5015811;28;20440;-71
2023/10/27 05:20:21;;;;;;;34.40;21.88;;;9.30;99.90;;;;;;4999303;28;20045;-72
2023/10/27 05:22:46;;;;;;;36.28;21.60;;;9.30;99.90;;;;;;5015433;28;20052;-72
2023/10/27 05:25:12;;;;;;;38.70;21.95;;;9.30;99.90;;;;;;5015668;28;20098;-71
2023/10/27 05:27:38;;;;;;;34.50;21.60;;;9.30;99.90;;;;;;5015338;28;20049;-71
2023/10/27 05:30:04;;;;;;;39.35;23.10;;;9.30;99.90;;;;;;5015430;28;20050;-72
2023/10/27 05:32:30;;;;;;;36.80;22.80;;;9.30;99.90;;;;;;5015327;28;20037;-72
2023/10/27 05:34:56;;;;;;;38.22;22.63;;;9.30;99.90;;;;;;4999315;28;20497;-71
2023/10/27 05:37:22;;;;;;;35.47;21.77;;;9.30;99.90;;;;;;4998973;28;20401;-72
2023/10/27 05:39:48;;;;;;;41.55;24.00;;;9.30;99.90;;;;;;5015295;28;20048;-72
2023/10/27 05:42:14;;;;;;;39.20;23.35;;;9.30;99.90;;;;;;5015185;28;20037;-71
2023/10/27 05:44:41;;;;;;;37.88;23.77;;;9.30;99.90;;;;;;4999298;28;20053;-71
2023/10/27 05:47:07;;;;;;;37.65;22.27;;;9.20;99.90;;;;;;4999006;28;20052;-71
2023/10/27 05:49:33;;;;;;;37.53;24.00;;;9.20;99.90;;;;;;5015367;28;20391;-71
2023/10/27 05:52:02;;;;;;;39.05;22.15;;;9.30;99.90;;;;;;5015291;28;20076;-71
2023/10/27 05:54:29;;;;;;;38.92;23.25;;;9.20;99.90;;;;;;5017276;28;20041;-71
2023/10/27 05:56:55;;;;;;;35.28;22.08;;;9.20;99.90;;;;;;5019511;28;20037;-72
2023/10/27 05:59:20;;;;;;;37.40;22.75;;;9.20;99.90;;;;;;4986718;28;20049;-72
2023/10/27 06:01:48;;;;;;;43.50;25.55;;;9.20;99.90;;;;;;5019101;28;20036;-72
2023/10/27 06:04:15;;;;;;;41.75;25.73;;;9.20;99.90;;;;;;5002588;28;20048;-72
2023/10/27 06:06:40;;;;;;;45.75;25.98;;;9.10;99.90;;;;;;5019269;28;20398;-72
2023/10/27 06:09:06;;;;;;;41.13;23.73;;;9.20;99.90;;;;;;5018823;28;20041;-72
2023/10/27 06:11:32;;;;;;;40.78;24.17;;;9.20;99.90;;;;;;5018852;28;20045;-72
2023/10/27 06:13:58;;;;;;;38.42;23.65;;;9.20;99.90;;;;;;5018768;28;20041;-72
2023/10/27 06:16:24;;;;;;;40.10;23.17;;;9.20;99.90;;;;;;5019111;28;20037;-72
2023/10/27 06:18:52;;;;;;;42.03;23.95;;;9.20;99.90;;;;;;5018649;28;20048;-72
2023/10/27 06:21:19;;;;;;;35.13;21.92;;;9.10;99.90;;;;;;5019061;28;20508;-72
2023/10/27 06:23:45;;;;;;;40.53;22.85;;;9.10;99.90;;;;;;5018964;28;20081;-72
2023/10/27 06:26:10;;;;;;;39.05;23.35;;;9.10;99.90;;;;;;5018549;28;20156;-72
2023/10/27 06:28:36;;;;;;;34.60;21.75;;;9.10;99.90;;;;;;5018470;28;20142;-72
2023/10/27 06:31:03;;;;;;;36.83;22.15;;;9.10;99.90;;;;;;5018431;28;20440;-72
2023/10/27 06:33:32;;;;;;;42.88;23.77;;;9.10;99.90;;;;;;5035251;28;20045;-72
2023/10/27 06:35:59;;;;;;;39.67;22.70;;;9.20;99.90;;;;;;5018444;28;20053;-72
2023/10/27 06:38:25;;;;;;;33.25;20.00;;;9.10;99.90;;;;;;5018630;28;20042;-72
2023/10/27 06:40:51;;;;;;;35.67;21.65;;;9.20;99.90;;;;;;5002129;28;20037;-72
2023/10/27 06:43:17;;;;;;;39.17;22.70;;;9.20;99.90;;;;;;5002361;28;20033;-73
2023/10/27 06:45:43;;;;;;;38.15;22.05;;;9.10;99.90;;;;;;5018553;28;20084;-72
2023/10/27 06:48:09;;;;;;;37.40;22.00;;;9.10;99.90;;;;;;5002224;28;20475;-72
2023/10/27 06:50:34;;;;;;;40.15;23.60;;;9.20;99.90;;;;;;5001931;28;20098;-72
2023/10/27 06:53:00;;;;;;;36.72;22.67;;;9.10;99.90;;;;;;5002194;28;20045;-71
2023/10/27 06:55:26;;;;;;;36.28;22.52;;;9.10;99.90;;;;;;5001806;28;20049;-72
2023/10/27 06:57:52;;;;;;;39.20;22.75;;;9.10;99.90;;;;;;5018156;28;20094;-72
2023/10/27 07:00:18;;;;;;;41.03;24.10;;;9.10;99.90;;;;;;5017984;28;20037;-72
2023/10/27 07:02:44;;;;;;;37.75;22.70;;;9.10;99.90;;;;;;5017933;28;20042;-72
2023/10/27 07:05:13;;;;;;;41.15;23.77;;;9.20;99.90;;;;;;5000624;28;20136;-72
2023/10/27 07:07:40;;;;;;;47.42;25.95;;;9.20;99.90;;;;;;5017993;28;20057;-72
2023/10/27 07:10:06;;;;;;;38.33;21.75;;;9.20;99.90;;;;;;4998241;28;20054;-72
2023/10/27 07:12:32;;;;;;;43.75;25.08;;;9.10;99.90;;;;;;5014763;28;20042;-72
2023/10/27 07:14:58;;;;;;;44.05;24.30;;;9.20;99.90;;;;;;5014807;28;20099;-72
2023/10/27 07:17:23;;;;;;;41.78;24.10;;;9.20;99.90;;;;;;5014487;28;20038;-72
2023/10/27 07:19:49;;;;;;;45.03;24.17;;;9.20;99.90;;;;;;4998397;28;20041;-72
2023/10/27 07:22:17;;;;;;;42.83;24.48;;;9.20;99.90;;;;;;5014289;28;20050;-72
2023/10/27 07:24:43;;;;;;;45.95;24.73;;;9.20;99.90;;;;;;5014270;28;20056;-72
2023/10/27 07:27:09;;;;;;;40.90;22.58;;;9.20;99.90;;;;;;5014258;28;20049;-72
2023/10/27 07:29:34;;;;;;;37.50;23.05;;;9.20;99.90;;;;;;5014263;28;20038;-72
2023/10/27 07:32:00;;;;;;;39.97;22.95;;;9.20;99.90;;;;;;4997943;28;20038;-72
2023/10/27 07:34:26;;;;;;;33.75;20.73;;;9.30;99.90;;;;;;5014099;28;20173;-72
2023/10/27 07:36:53;;;;;;;34.28;21.30;;;9.30;99.90;;;;;;5014186;28;20510;-72
2023/10/27 07:39:19;;;;;;;35.92;22.92;;;9.30;99.90;;;;;;5014322;28;20038;-72
2023/10/27 07:41:45;;;;;;;39.70;22.95;;;9.30;99.90;;;;;;5013933;28;20038;-72
2023/10/27 07:44:10;;;;;;;39.00;23.02;;;9.30;99.90;;;;;;5014229;28;20041;-72
2023/10/27 07:46:37;;;;;;;39.75;23.40;;;9.30;99.90;;;;;;5013999;28;20124;-72
2023/10/27 07:49:03;;;;;;;35.78;21.98;;;9.30;99.90;;;;;;5013866;28;20155;-72
2023/10/27 07:51:29;;;;;;;37.00;22.02;;;9.30;99.90;;;;;;5013876;28;20056;-72
2023/10/27 07:53:55;;;;;;;37.78;22.65;;;9.30;99.90;;;;;;4997549;28;20041;-72
2023/10/27 07:56:21;;;;;;;39.60;22.65;;;9.30;99.90;;;;;;5013770;28;20462;-72
2023/10/27 07:58:47;;;;;;;36.17;22.35;;;9.30;99.90;;;;;;5013717;28;20045;-72
2023/10/27 08:01:13;;;;;;;34.85;21.33;;;9.30;99.90;;;;;;5013587;28;20045;-72
2023/10/27 08:03:39;;;;;;;34.38;21.70;;;9.40;99.90;;;;;;5013580;28;20057;-72
2023/10/27 08:06:07;;;;;;;36.25;22.00;;;9.40;99.90;;;;;;4997531;28;20038;-72
2023/10/27 08:08:33;;;;;;;35.15;21.27;;;9.40;99.90;;;;;;5013536;28;20044;-72
2023/10/27 08:11:00;;;;;;;36.95;21.90;;;9.50;99.90;;;;;;5013254;28;20065;-72
2023/10/27 08:13:26;;;;;;;35.70;21.65;;;9.40;99.90;;;;;;4997058;28;20042;-72
2023/10/27 08:15:53;;;;;;;33.70;21.55;;;9.50;99.90;;;;;;5013703;28;20034;-72
2023/10/27 08:18:18;;;;;;;32.58;20.75;;;9.50;99.90;;;;;;5013561;28;20129;-72
2023/10/27 08:20:44;;;;;;;34.30;21.67;;;9.50;99.90;;;;;;4996963;28;20128;-71
2023/10/27 08:23:10;;;;;;;35.45;21.70;;;9.60;99.90;;;;;;5013250;28;20084;-71
2023/10/27 08:25:36;;;;;;;39.22;22.55;;;9.60;99.90;;;;;;4997234;28;20037;-72
2023/10/27 08:28:04;;;;;;;38.80;21.95;;;9.60;99.90;;;;;;5013029;28;20045;-72
2023/10/27 08:30:29;;;;;;;38.78;22.60;;;9.60;99.90;;;;;;5013505;28;20057;-71
2023/10/27 08:32:55;;;;;;;34.47;22.08;;;9.60;99.90;;;;;;5013088;28;20042;-72
2023/10/27 08:35:21;;;;;;;41.20;22.90;;;9.60;99.90;;;;;;5013073;28;20044;-71
2023/10/27 08:37:47;;;;;;;36.70;22.33;;;9.60;99.90;;;;;;5012930;28;20088;-72
2023/10/27 08:40:13;;;;;;;36.58;22.00;;;9.70;99.90;;;;;;5012902;28;20041;-71
2023/10/27 08:42:42;;;;;;;42.70;23.08;;;9.70;99.90;;;;;;5012931;28;20469;-72
2023/10/27 08:45:08;;;;;;;38.10;22.85;;;9.70;99.90;;;;;;5013128;28;20536;-72
2023/10/27 08:47:36;;;;;;;38.20;23.27;;;9.70;99.90;;;;;;5013088;28;20116;-72
2023/10/27 08:50:04;;;;;;;36.03;22.85;;;9.80;99.90;;;;;;5012945;28;20161;-72
2023/10/27 08:52:34;;;;;;;38.42;23.90;;;9.80;99.90;;;;;;5012772;28;20105;-72
2023/10/27 08:55:08;;;;;;;34.53;21.60;;;9.80;99.90;;;;;;5012611;28;20045;-72
2023/10/27 08:57:34;;;;;;;35.40;21.88;;;9.80;99.90;;;;;;4996245;28;20045;-72
2023/10/27 08:59:59;;;;;;;34.50;22.48;;;9.90;99.90;;;;;;5012604;28;20046;-72
2023/10/27 09:02:32;;;;;;;33.47;21.42;;;9.90;99.90;;;;;;5012961;28;20132;-73
2023/10/27 09:05:17;;;;;;;35.15;21.50;;;9.90;99.90;;;;;;5012437;28;20041;-72
2023/10/27 09:07:43;;;;;;;32.95;20.98;;;9.90;99.90;;;;;;5012444;28;20064;-72
2023/10/27 09:10:09;;;;;;;34.42;21.08;;;9.90;99.90;;;;;;4998487;28;20054;-72
2023/10/27 09:12:39;;;;;;;36.55;22.48;;;9.90;99.90;;;;;;5015658;28;20041;-72
2023/10/27 09:15:07;;;;;;;34.95;21.98;;;9.90;99.90;;;;;;4999532;28;20095;-72
2023/10/27 09:17:55;;;;;;;37.92;23.23;;;9.90;99.90;;;;;;4999183;28;20049;-72
2023/10/27 09:20:23;;;;;;;33.33;21.48;;;10.00;99.90;;;;;;4999547;28;20534;-72
2023/10/27 09:23:00;;;;;;;43.40;23.70;;;10.00;99.90;;;;;;5031971;28;20162;-72
2023/10/27 09:25:32;;;;;;;36.80;22.42;;;10.00;99.90;;;;;;5015879;28;20371;-73
2023/10/27 09:28:00;;;;;;;35.67;22.17;;;10.00;99.90;;;;;;4983358;28;20111;-72
2023/10/27 09:30:34;;;;;;;36.90;23.13;;;10.00;99.90;;;;;;5015286;28;20069;-72
2023/10/27 09:33:13;;;;;;;36.17;22.98;;;10.10;99.90;;;;;;5015679;28;20038;-72
2023/10/27 09:35:42;;;;;;;38.75;23.05;;;10.10;99.90;;;;;;5031854;28;20037;-73
2023/10/27 09:38:08;;;;;;;38.10;23.85;;;10.10;99.90;;;;;;4999251;28;20041;-72
2023/10/27 09:40:37;;;;;;;38.13;22.33;;;10.10;99.90;;;;;;4999008;28;20041;-73
2023/10/27 09:43:06;;;;;;;35.65;22.88;;;10.20;99.90;;;;;;4998969;28;20099;-73
2023/10/27 09:45:35;;;;;;;37.53;23.52;;;10.20;99.90;;;;;;5015264;28;20049;-73
2023/10/27 09:48:03;;;;;;;35.65;22.90;;;10.20;99.90;;;;;;4999187;28;20379;-73
2023/10/27 09:50:30;;;;;;;37.75;24.33;;;10.20;99.90;;;;;;4999214;28;20033;-73
2023/10/27 09:53:01;;;;;;;35.97;23.60;;;10.30;99.90;;;;;;5015210;28;20124;-73
2023/10/27 09:55:27;;;;;;;32.78;21.15;;;10.30;99.90;;;;;;5015304;28;20045;-73
2023/10/27 09:57:53;;;;;;;34.08;22.08;;;10.40;99.90;;;;;;4998769;28;20044;-73
2023/10/27 10:00:26;;;;;;;33.10;20.55;;;10.40;99.90;;;;;;4998770;28;20479;-73
2023/10/27 10:02:53;;;;;;;35.95;22.67;;;10.40;99.90;;;;;;5015312;28;20128;-73
2023/10/27 10:05:19;;;;;;;36.30;22.90;;;10.30;99.90;;;;;;4999056;28;20084;-73
2023/10/27 10:07:52;;;;;;;32.10;21.67;;;10.40;99.90;;;;;;5031542;28;20080;-73
2023/10/27 10:10:35;;;;;;;34.38;21.85;;;10.40;99.90;;;;;;4998724;28;20057;-72
2023/10/27 10:13:08;;;;;;;30.42;20.88;;;10.40;99.90;;;;;;5031524;28;20038;-73
2023/10/27 10:15:35;;;;;;;36.08;22.67;;;10.40;99.90;;;;;;4999182;28;20400;-73
2023/10/27 10:18:02;;;;;;;37.28;22.98;;;10.30;99.90;;;;;;5031655;28;20128;-73
2023/10/27 10:20:50;;;;;;;36.55;22.45;;;10.30;99.90;;;;;;5015103;28;20037;-73
2023/10/27 10:23:16;;;;;;;34.72;22.73;;;10.30;99.90;;;;;;5031846;28;20490;-72
2023/10/27 10:25:56;;;;;;;38.53;24.08;;;10.30;99.90;;;;;;4998571;28;20037;-72
2023/10/27 10:28:27;;;;;;;34.63;20.98;;;10.30;99.90;;;;;;4999043;28;20052;-72
2023/10/27 10:31:11;;;;;;;34.97;22.77;;;10.30;99.90;;;;;;5014860;28;20045;-73
2023/10/27 10:33:40;;;;;;;38.35;23.45;;;10.30;99.90;;;;;;4998937;28;20123;-73
2023/10/27 10:36:18;;;;;;;39.05;23.25;;;10.30;99.90;;;;;;4982717;28;20041;-73
2023/10/27 10:38:50;;;;;;;37.15;23.35;;;10.40;99.90;;;;;;5031352;28;20064;-72
2023/10/27 10:41:17;;;;;;;36.20;23.92;;;10.40;99.90;;;;;;5034611;28;20037;-72
2023/10/27 10:43:43;;;;;;;36.50;23.58;;;10.40;99.90;;;;;;5002554;28;20048;-72
2023/10/27 10:46:11;;;;;;;37.90;22.90;;;10.40;99.90;;;;;;5002385;28;20049;-72
2023/10/27 10:48:42;;;;;;;36.10;22.40;;;10.40;99.90;;;;;;5002256;28;20451;-73
2023/10/27 10:53:55;;;;;;;35.88;22.88;;;10.50;99.90;;;;;;5034709;28;20045;-72
2023/10/27 10:56:22;;;;;;;38.92;25.17;;;10.50;99.90;;;;;;5001825;28;20072;-72
2023/10/27 10:58:47;;;;;;;41.35;25.33;;;10.60;99.90;;;;;;5001914;28;20068;-72
2023/10/27 11:01:18;;;;;;;41.25;25.48;;;10.60;99.90;;;;;;5002228;28;20478;-73
2023/10/27 11:03:48;;;;;;;40.35;25.52;;;10.50;99.90;;;;;;5001594;28;20151;-73
2023/10/27 11:06:14;;;;;;;38.40;24.25;;;10.50;99.90;;;;;;5018266;28;20132;-73
2023/10/27 11:08:40;;;;;;;36.50;24.15;;;10.60;99.90;;;;;;5017936;28;20073;-73
2023/10/27 11:11:08;;;;;;;35.80;23.17;;;10.60;99.90;;;;;;5034191;28;20549;-73
2023/10/27 11:13:40;;;;;;;34.90;24.77;;;10.60;99.90;;;;;;5018261;28;20046;-73
2023/10/27 11:16:17;;;;;;;36.20;23.95;;;10.60;99.90;;;;;;5017812;28;20124;-73
2023/10/27 11:18:46;;;;;;;38.10;24.77;;;10.70;99.90;;;;;;5017749;28;20053;-73
2023/10/27 11:21:16;;;;;;;37.42;25.13;;;10.70;99.90;;;;;;5017835;28;20482;-73
2023/10/27 11:23:42;;;;;;;33.38;22.70;;;10.80;99.90;;;;;;5034081;28;20045;-73
2023/10/27 11:26:08;;;;;;;37.47;23.58;;;10.70;99.90;;;;;;5018261;28;20045;-73
2023/10/27 11:28:41;;;;;;;37.90;25.33;;;10.70;99.90;;;;;;5001245;28;20512;-73
2023/10/27 11:31:13;;;;;;;37.67;24.63;;;10.70;99.90;;;;;;5033939;28;20045;-73
2023/10/27 11:34:04;;;;;;;37.53;25.50;;;10.70;99.90;;;;;;5034252;28;20045;-73
2023/10/27 11:37:01;;;;;;;37.35;24.75;;;10.70;99.90;;;;;;5022812;28;20308;-73
2023/10/27 11:39:27;;;;;;;36.78;24.45;;;10.70;99.90;;;;;;5009762;28;20049;-73
2023/10/27 11:41:59;;;;;;;36.22;24.75;;;10.70;99.90;;;;;;5001037;28;20045;-73
2023/10/27 11:44:25;;;;;;;37.78;25.02;;;10.70;99.90;;;;;;5017240;28;20043;-73
2023/10/27 11:46:56;;;;;;;35.60;24.65;;;10.70;99.90;;;;;;5000816;28;20041;-74
2023/10/27 11:49:23;;;;;;;36.92;23.27;;;10.70;99.90;;;;;;5017080;28;20048;-73
2023/10/27 11:51:52;;;;;;;41.10;26.73;;;10.80;99.90;;;;;;5016411;28;20037;-73
2023/10/27 11:54:18;;;;;;;37.70;25.95;;;10.70;99.90;;;;;;5017489;28;20462;-73
2023/10/27 11:56:45;;;;;;;41.22;26.35;;;10.70;99.90;;;;;;5017186;28;20038;-73
2023/10/27 11:59:11;;;;;;;40.97;27.48;;;10.70;99.90;;;;;;5017251;28;20037;-73
2023/10/27 12:01:37;;;;;;;37.58;25.42;;;10.70;99.90;;;;;;5016959;28;20448;-73
2023/10/27 12:04:07;;;;;;;37.17;25.02;;;10.70;99.90;;;;;;5016868;28;20041;-73
2023/10/27 12:06:43;;;;;;;38.33;25.95;;;10.70;99.90;;;;;;5000737;28;20056;-73
2023/10/27 12:09:11;;;;;;;36.63;25.75;;;10.70;99.90;;;;;;5016821;28;20048;-73
2023/10/27 12:11:37;;;;;;;38.80;27.02;;;10.70;99.90;;;;;;5033159;28;20132;-73
2023/10/27 12:14:03;;;;;;;38.65;26.35;;;10.70;99.90;;;;;;4984458;28;20079;-73
2023/10/27 12:16:29;;;;;;;32.28;21.67;;;10.80;99.90;;;;;;5016722;28;20052;-73
2023/10/27 12:18:56;;;;;;;31.95;22.80;;;10.80;99.90;;;;;;5016537;28;20042;-73
2023/10/27 12:21:23;;;;;;;34.50;24.42;;;10.80;99.90;;;;;;5017124;28;20038;-73
2023/10/27 12:23:49;;;;;;;39.72;26.20;;;10.80;99.90;;;;;;5032915;28;20064;-73
2023/10/27 12:26:15;;;;;;;40.78;27.05;;;10.80;99.90;;;;;;5033432;28;20033;-73
2023/10/27 12:28:40;;;;;;;39.67;27.42;;;10.80;99.90;;;;;;5032845;28;20190;-73
2023/10/27 12:31:06;;;;;;;41.40;27.05;;;10.80;99.90;;;;;;5000011;28;20045;-73
2023/10/27 12:33:32;;;;;;;41.63;27.45;;;10.80;99.90;;;;;;5000240;28;20045;-73
2023/10/27 12:36:09;;;;;;;41.50;27.17;;;10.90;99.90;;;;;;5016367;28;20047;-73